sensor_id;sensor_type;location;lat;lon;timestamp;noise_LAeq;noise_LA_min;noise_LA_max;noise_LA01;noise_LA95
186;Laerm;55473;48.800;9.002;2023-04-24T00:00:20;41.35;36.48;50.89;;
186;Laerm;55473;48.800;9.002;2023-04-24T00:02:46;38.67;34.85;48.61;;
186;Laerm;55473;48.800;9.002;2023-04-24T00:05:17;38.18;34.57;49.22;;
186;Laerm;55473;48.800;9.002;2023-04-24T00:07:44;39.54;34.54;55.34;;
186;Laerm;55473;48.800;9.002;2023-04-24T00:10:11;37.47;34.28;49.71;;
186;Laerm;55473;48.800;9.002;2023-04-24T00:12:38;36.37;33.89;49.59;;
186;Laerm;55473;48.800;9.002;2023-04-24T00:15:05;37.13;34.12;50.71;;
186;Laerm;55473;48.800;9.002;2023-04-24T00:17:31;36.73;34.11;46.79;;
186;Laerm;55473;48.800;9.002;2023-04-24T00:19:57;37.07;33.86;47.35;;
186;Laerm;55473;48.800;9.002;2023-04-24T00:22:31;36.77;34.36;47.30;;
186;Laerm;55473;48.800;9.002;2023-04-24T00:24:57;36.04;33.59;46.93;;
186;Laerm;55473;48.800;9.002;2023-04-24T00:27:23;37.90;34.13;47.74;;
186;Laerm;55473;48.800;9.002;2023-04-24T00:29:50;37.81;33.72;47.81;;
186;Laerm;55473;48.800;9.002;2023-04-24T00:32:16;36.39;34.14;48.00;;
186;Laerm;55473;48.800;9.002;2023-04-24T00:34:43;37.02;34.31;46.24;;
186;Laerm;55473;48.800;9.002;2023-04-24T00:37:09;37.89;34.75;50.40;;
186;Laerm;55473;48.800;9.002;2023-04-24T00:39:35;36.83;34.07;49.41;;
186;Laerm;55473;48.800;9.002;2023-04-24T00:42:00;40.98;34.28;59.30;;
186;Laerm;55473;48.800;9.002;2023-04-24T00:44:27;36.60;34.15;46.99;;
186;Laerm;55473;48.800;9.002;2023-04-24T00:46:54;39.21;34.17;55.99;;
186;Laerm;55473;48.800;9.002;2023-04-24T00:49:22;41.96;34.74;59.54;;
186;Laerm;55473;48.800;9.002;2023-04-24T00:51:48;37.03;34.47;49.17;;
186;Laerm;55473;48.800;9.002;2023-04-24T00:54:15;37.45;35.00;47.84;;
186;Laerm;55473;48.800;9.002;2023-04-24T00:56:42;40.35;34.47;56.21;;
186;Laerm;55473;48.800;9.002;2023-04-24T00:59:13;42.64;34.73;60.22;;
186;Laerm;55473;48.800;9.002;2023-04-24T01:01:41;38.29;35.02;49.73;;
186;Laerm;55473;48.800;9.002;2023-04-24T01:04:09;38.74;35.12;53.65;;
186;Laerm;55473;48.800;9.002;2023-04-24T01:06:39;43.02;34.97;64.33;;
186;Laerm;55473;48.800;9.002;2023-04-24T01:09:06;38.23;34.30;56.16;;
186;Laerm;55473;48.800;9.002;2023-04-24T01:11:37;42.06;35.48;54.47;;
186;Laerm;55473;48.800;9.002;2023-04-24T01:14:03;37.94;34.18;49.35;;
186;Laerm;55473;48.800;9.002;2023-04-24T01:16:29;36.58;34.04;47.50;;
186;Laerm;55473;48.800;9.002;2023-04-24T01:18:55;36.91;34.28;48.25;;
186;Laerm;55473;48.800;9.002;2023-04-24T01:21:24;37.01;34.89;47.73;;
186;Laerm;55473;48.800;9.002;2023-04-24T01:23:53;38.00;34.34;51.81;;
186;Laerm;55473;48.800;9.002;2023-04-24T01:26:21;36.52;34.31;48.46;;
186;Laerm;55473;48.800;9.002;2023-04-24T01:28:48;37.55;34.75;49.32;;
186;Laerm;55473;48.800;9.002;2023-04-24T01:31:15;40.12;34.77;55.25;;
186;Laerm;55473;48.800;9.002;2023-04-24T01:33:42;38.01;35.31;46.11;;
186;Laerm;55473;48.800;9.002;2023-04-24T01:36:11;39.00;34.35;51.92;;
186;Laerm;55473;48.800;9.002;2023-04-24T01:38:37;37.46;34.55;48.54;;
186;Laerm;55473;48.800;9.002;2023-04-24T01:41:03;37.25;35.01;46.26;;
186;Laerm;55473;48.800;9.002;2023-04-24T01:43:30;45.11;35.18;65.07;;
186;Laerm;55473;48.800;9.002;2023-04-24T01:45:56;38.48;35.46;50.04;;
186;Laerm;55473;48.800;9.002;2023-04-24T01:48:22;37.58;34.94;47.84;;
186;Laerm;55473;48.800;9.002;2023-04-24T01:50:48;38.12;35.29;48.55;;
186;Laerm;55473;48.800;9.002;2023-04-24T01:53:14;38.24;35.40;47.31;;
186;Laerm;55473;48.800;9.002;2023-04-24T01:55:40;38.51;35.74;47.51;;
186;Laerm;55473;48.800;9.002;2023-04-24T01:58:06;38.23;35.19;53.81;;
186;Laerm;55473;48.800;9.002;2023-04-24T02:00:33;38.79;35.33;49.89;;
186;Laerm;55473;48.800;9.002;2023-04-24T02:02:59;41.71;35.08;52.40;;
186;Laerm;55473;48.800;9.002;2023-04-24T02:05:27;38.32;35.60;46.68;;
186;Laerm;55473;48.800;9.002;2023-04-24T02:07:53;39.55;35.84;48.39;;
186;Laerm;55473;48.800;9.002;2023-04-24T02:10:19;38.77;35.89;46.60;;
186;Laerm;55473;48.800;9.002;2023-04-24T02:12:45;37.99;35.22;48.33;;
186;Laerm;55473;48.800;9.002;2023-04-24T02:15:11;44.80;36.02;54.91;;
186;Laerm;55473;48.800;9.002;2023-04-24T02:17:38;37.99;35.15;47.15;;
186;Laerm;55473;48.800;9.002;2023-04-24T02:20:06;40.47;35.63;57.46;;
186;Laerm;55473;48.800;9.002;2023-04-24T02:22:32;37.98;35.18;46.69;;
186;Laerm;55473;48.800;9.002;2023-04-24T02:24:58;38.13;35.20;47.82;;
186;Laerm;55473;48.800;9.002;2023-04-24T02:27:24;40.82;36.24;53.86;;
186;Laerm;55473;48.800;9.002;2023-04-24T02:29:50;47.62;38.34;61.95;;
186;Laerm;55473;48.800;9.002;2023-04-24T02:32:16;44.52;37.59;57.39;;
186;Laerm;55473;48.800;9.002;2023-04-24T02:34:41;42.89;36.86;59.47;;
186;Laerm;55473;48.800;9.002;2023-04-24T02:37:07;45.80;37.18;62.77;;
186;Laerm;55473;48.800;9.002;2023-04-24T02:39:33;45.17;36.06;61.10;;
186;Laerm;55473;48.800;9.002;2023-04-24T02:41:59;42.88;36.50;69.26;;
186;Laerm;55473;48.800;9.002;2023-04-24T02:44:25;41.37;36.27;58.81;;
186;Laerm;55473;48.800;9.002;2023-04-24T02:46:51;41.82;36.29;60.84;;
186;Laerm;55473;48.800;9.002;2023-04-24T02:49:17;44.88;36.44;60.25;;
186;Laerm;55473;48.800;9.002;2023-04-24T02:51:43;40.23;35.54;61.08;;
186;Laerm;55473;48.800;9.002;2023-04-24T02:54:09;41.70;35.63;58.99;;
186;Laerm;55473;48.800;9.002;2023-04-24T02:56:38;42.81;36.89;59.34;;
186;Laerm;55473;48.800;9.002;2023-04-24T02:59:03;43.95;37.57;52.50;;
186;Laerm;55473;48.800;9.002;2023-04-24T03:01:29;43.11;37.54;52.84;;
186;Laerm;55473;48.800;9.002;2023-04-24T03:03:56;42.60;37.36;51.92;;
186;Laerm;55473;48.800;9.002;2023-04-24T03:06:22;43.01;37.43;52.55;;
186;Laerm;55473;48.800;9.002;2023-04-24T03:08:48;42.12;37.96;51.23;;
186;Laerm;55473;48.800;9.002;2023-04-24T03:11:14;42.80;38.47;51.90;;
186;Laerm;55473;48.800;9.002;2023-04-24T03:13:40;42.64;38.04;60.15;;
186;Laerm;55473;48.800;9.002;2023-04-24T03:16:05;43.91;38.59;54.11;;
186;Laerm;55473;48.800;9.002;2023-04-24T03:18:32;48.91;39.24;62.51;;
186;Laerm;55473;48.800;9.002;2023-04-24T03:20:57;58.32;38.56;76.27;;
186;Laerm;55473;48.800;9.002;2023-04-24T03:23:23;56.96;39.05;73.62;;
186;Laerm;55473;48.800;9.002;2023-04-24T03:25:49;58.10;39.43;74.81;;
186;Laerm;55473;48.800;9.002;2023-04-24T03:28:15;60.22;39.13;76.98;;
186;Laerm;55473;48.800;9.002;2023-04-24T03:30:41;54.00;40.47;66.97;;
186;Laerm;55473;48.800;9.002;2023-04-24T03:33:07;58.05;41.02;73.89;;
186;Laerm;55473;48.800;9.002;2023-04-24T03:35:33;59.75;40.12;75.31;;
186;Laerm;55473;48.800;9.002;2023-04-24T03:37:59;59.94;42.05;75.30;;
186;Laerm;55473;48.800;9.002;2023-04-24T03:40:25;59.97;41.57;74.16;;
186;Laerm;55473;48.800;9.002;2023-04-24T03:42:51;57.73;42.41;72.84;;
186;Laerm;55473;48.800;9.002;2023-04-24T03:45:17;57.79;42.83;74.08;;
186;Laerm;55473;48.800;9.002;2023-04-24T03:47:43;59.48;42.47;76.04;;
186;Laerm;55473;48.800;9.002;2023-04-24T03:50:09;60.31;43.07;74.54;;
186;Laerm;55473;48.800;9.002;2023-04-24T03:52:35;59.03;42.61;74.61;;
186;Laerm;55473;48.800;9.002;2023-04-24T03:55:01;54.59;42.67;71.59;;
186;Laerm;55473;48.800;9.002;2023-04-24T03:57:27;52.14;42.04;63.09;;
186;Laerm;55473;48.800;9.002;2023-04-24T03:59:52;50.52;41.12;64.55;;
186;Laerm;55473;48.800;9.002;2023-04-24T04:02:19;50.08;42.05;63.56;;
186;Laerm;55473;48.800;9.002;2023-04-24T04:04:45;48.56;42.12;58.91;;
186;Laerm;55473;48.800;9.002;2023-04-24T04:07:11;49.92;40.42;60.92;;
186;Laerm;55473;48.800;9.002;2023-04-24T04:09:38;50.15;41.62;66.65;;
186;Laerm;55473;48.800;9.002;2023-04-24T04:12:04;51.22;41.14;61.21;;
186;Laerm;55473;48.800;9.002;2023-04-24T04:14:30;49.37;42.07;61.59;;
186;Laerm;55473;48.800;9.002;2023-04-24T04:16:56;52.15;40.92;67.66;;
186;Laerm;55473;48.800;9.002;2023-04-24T04:19:22;53.45;40.05;71.57;;
186;Laerm;55473;48.800;9.002;2023-04-24T04:21:48;49.28;39.53;63.75;;
186;Laerm;55473;48.800;9.002;2023-04-24T04:24:19;48.80;42.87;59.56;;
186;Laerm;55473;48.800;9.002;2023-04-24T04:26:46;49.22;42.73;58.60;;
186;Laerm;55473;48.800;9.002;2023-04-24T04:29:13;48.07;41.71;64.82;;
186;Laerm;55473;48.800;9.002;2023-04-24T04:31:39;50.14;43.97;64.86;;
186;Laerm;55473;48.800;9.002;2023-04-24T04:34:05;59.53;44.76;81.43;;
186;Laerm;55473;48.800;9.002;2023-04-24T04:36:31;57.71;40.71;81.34;;
186;Laerm;55473;48.800;9.002;2023-04-24T04:38:58;48.05;40.31;64.89;;
186;Laerm;55473;48.800;9.002;2023-04-24T04:41:24;50.41;40.97;71.94;;
186;Laerm;55473;48.800;9.002;2023-04-24T04:43:50;49.25;41.16;64.50;;
186;Laerm;55473;48.800;9.002;2023-04-24T04:46:18;48.13;43.14;59.27;;
186;Laerm;55473;48.800;9.002;2023-04-24T04:48:44;48.96;41.78;63.81;;
186;Laerm;55473;48.800;9.002;2023-04-24T04:51:10;47.81;42.53;62.03;;
186;Laerm;55473;48.800;9.002;2023-04-24T04:53:36;47.75;41.53;64.23;;
186;Laerm;55473;48.800;9.002;2023-04-24T04:56:01;47.52;41.75;64.28;;
186;Laerm;55473;48.800;9.002;2023-04-24T04:58:28;51.75;43.01;72.82;;
186;Laerm;55473;48.800;9.002;2023-04-24T05:00:53;47.61;40.96;66.96;;
186;Laerm;55473;48.800;9.002;2023-04-24T05:03:19;48.46;41.41;63.70;;
186;Laerm;55473;48.800;9.002;2023-04-24T05:05:45;50.51;42.64;62.47;;
186;Laerm;55473;48.800;9.002;2023-04-24T05:08:11;47.32;41.31;63.48;;
186;Laerm;55473;48.800;9.002;2023-04-24T05:10:37;47.69;41.63;59.22;;
186;Laerm;55473;48.800;9.002;2023-04-24T05:13:03;48.09;41.53;57.40;;
186;Laerm;55473;48.800;9.002;2023-04-24T05:15:30;48.87;40.81;63.89;;
186;Laerm;55473;48.800;9.002;2023-04-24T05:17:56;50.76;42.56;71.97;;
186;Laerm;55473;48.800;9.002;2023-04-24T05:20:22;48.76;42.13;66.89;;
186;Laerm;55473;48.800;9.002;2023-04-24T05:22:48;48.86;41.86;65.33;;
186;Laerm;55473;48.800;9.002;2023-04-24T05:25:14;50.62;40.85;67.24;;
186;Laerm;55473;48.800;9.002;2023-04-24T05:27:40;47.93;41.51;58.90;;
186;Laerm;55473;48.800;9.002;2023-04-24T05:30:07;49.40;42.21;62.49;;
186;Laerm;55473;48.800;9.002;2023-04-24T05:32:33;49.40;42.31;62.17;;
186;Laerm;55473;48.800;9.002;2023-04-24T05:34:58;58.71;45.99;68.39;;
186;Laerm;55473;48.800;9.002;2023-04-24T05:37:25;50.61;42.12;64.61;;
186;Laerm;55473;48.800;9.002;2023-04-24T05:39:51;56.39;41.76;67.18;;
186;Laerm;55473;48.800;9.002;2023-04-24T05:42:17;48.28;42.45;65.42;;
186;Laerm;55473;48.800;9.002;2023-04-24T05:44:43;46.90;41.30;55.52;;
186;Laerm;55473;48.800;9.002;2023-04-24T05:47:09;58.30;41.69;68.79;;
186;Laerm;55473;48.800;9.002;2023-04-24T05:49:35;54.47;42.14;79.83;;
186;Laerm;55473;48.800;9.002;2023-04-24T05:52:00;54.07;40.76;75.84;;
186;Laerm;55473;48.800;9.002;2023-04-24T05:54:26;48.01;40.71;61.64;;
186;Laerm;55473;48.800;9.002;2023-04-24T05:56:52;47.40;42.11;60.98;;
186;Laerm;55473;48.800;9.002;2023-04-24T05:59:20;50.85;43.07;68.26;;
186;Laerm;55473;48.800;9.002;2023-04-24T06:01:46;50.46;43.53;65.41;;
186;Laerm;55473;48.800;9.002;2023-04-24T06:04:12;50.10;41.66;62.57;;
186;Laerm;55473;48.800;9.002;2023-04-24T06:06:39;47.50;40.45;63.27;;
186;Laerm;55473;48.800;9.002;2023-04-24T06:09:05;48.17;42.24;62.70;;
186;Laerm;55473;48.800;9.002;2023-04-24T06:11:31;48.05;41.54;61.22;;
186;Laerm;55473;48.800;9.002;2023-04-24T06:13:57;47.28;39.73;61.00;;
186;Laerm;55473;48.800;9.002;2023-04-24T06:16:23;50.44;41.87;71.24;;
186;Laerm;55473;48.800;9.002;2023-04-24T06:18:49;49.67;41.74;70.34;;
186;Laerm;55473;48.800;9.002;2023-04-24T06:21:16;46.91;41.93;58.16;;
186;Laerm;55473;48.800;9.002;2023-04-24T06:23:42;47.60;39.88;69.04;;
186;Laerm;55473;48.800;9.002;2023-04-24T06:26:08;46.21;40.06;56.80;;
186;Laerm;55473;48.800;9.002;2023-04-24T06:28:34;47.65;42.48;55.24;;
186;Laerm;55473;48.800;9.002;2023-04-24T06:31:00;49.06;40.47;64.65;;
186;Laerm;55473;48.800;9.002;2023-04-24T06:33:26;49.66;40.98;61.27;;
186;Laerm;55473;48.800;9.002;2023-04-24T06:35:52;47.97;39.83;62.18;;
186;Laerm;55473;48.800;9.002;2023-04-24T06:38:18;48.05;41.02;61.88;;
186;Laerm;55473;48.800;9.002;2023-04-24T06:40:44;54.40;42.93;77.80;;
186;Laerm;55473;48.800;9.002;2023-04-24T06:43:10;47.65;41.76;63.69;;
186;Laerm;55473;48.800;9.002;2023-04-24T06:45:36;46.22;41.02;54.62;;
186;Laerm;55473;48.800;9.002;2023-04-24T06:48:02;47.60;40.20;58.56;;
186;Laerm;55473;48.800;9.002;2023-04-24T06:50:28;47.21;39.36;56.64;;
186;Laerm;55473;48.800;9.002;2023-04-24T06:52:54;50.49;41.07;61.76;;
186;Laerm;55473;48.800;9.002;2023-04-24T06:55:20;47.53;40.57;63.08;;
186;Laerm;55473;48.800;9.002;2023-04-24T06:57:46;48.43;41.72;60.42;;
186;Laerm;55473;48.800;9.002;2023-04-24T07:00:12;49.56;41.74;63.03;;
186;Laerm;55473;48.800;9.002;2023-04-24T07:02:38;46.20;39.62;62.18;;
186;Laerm;55473;48.800;9.002;2023-04-24T07:05:05;49.42;40.33;64.09;;
186;Laerm;55473;48.800;9.002;2023-04-24T07:07:31;45.44;39.69;55.13;;
186;Laerm;55473;48.800;9.002;2023-04-24T07:09:57;49.82;42.36;61.24;;
186;Laerm;55473;48.800;9.002;2023-04-24T07:12:23;51.75;42.59;69.16;;
186;Laerm;55473;48.800;9.002;2023-04-24T07:14:50;49.85;41.29;70.52;;
186;Laerm;55473;48.800;9.002;2023-04-24T07:17:16;51.21;43.75;63.00;;
186;Laerm;55473;48.800;9.002;2023-04-24T07:19:42;48.75;41.52;67.66;;
186;Laerm;55473;48.800;9.002;2023-04-24T07:22:08;49.12;41.22;64.07;;
186;Laerm;55473;48.800;9.002;2023-04-24T07:24:34;48.93;41.42;61.03;;
186;Laerm;55473;48.800;9.002;2023-04-24T07:27:00;46.61;41.31;64.09;;
186;Laerm;55473;48.800;9.002;2023-04-24T07:29:29;45.07;40.56;57.61;;
186;Laerm;55473;48.800;9.002;2023-04-24T07:31:54;52.07;40.85;62.49;;
186;Laerm;55473;48.800;9.002;2023-04-24T07:34:22;50.02;41.46;64.46;;
186;Laerm;55473;48.800;9.002;2023-04-24T07:36:48;48.96;42.56;61.80;;
186;Laerm;55473;48.800;9.002;2023-04-24T07:39:14;49.31;43.48;64.11;;
186;Laerm;55473;48.800;9.002;2023-04-24T07:41:39;50.39;42.06;63.12;;
186;Laerm;55473;48.800;9.002;2023-04-24T07:44:05;49.83;44.86;56.47;;
186;Laerm;55473;48.800;9.002;2023-04-24T07:46:32;52.55;46.69;62.75;;
186;Laerm;55473;48.800;9.002;2023-04-24T07:48:58;50.39;44.52;61.68;;
186;Laerm;55473;48.800;9.002;2023-04-24T07:51:25;50.49;43.55;66.41;;
186;Laerm;55473;48.800;9.002;2023-04-24T07:53:53;46.20;42.44;57.89;;
186;Laerm;55473;48.800;9.002;2023-04-24T07:56:21;48.38;41.86;63.02;;
186;Laerm;55473;48.800;9.002;2023-04-24T07:58:46;51.15;43.00;64.67;;
186;Laerm;55473;48.800;9.002;2023-04-24T08:01:12;52.92;44.41;73.61;;
186;Laerm;55473;48.800;9.002;2023-04-24T08:03:38;53.27;44.57;78.45;;
186;Laerm;55473;48.800;9.002;2023-04-24T08:06:05;49.41;44.09;58.16;;
186;Laerm;55473;48.800;9.002;2023-04-24T08:08:31;46.48;40.96;60.19;;
186;Laerm;55473;48.800;9.002;2023-04-24T08:10:56;49.44;40.72;62.24;;
186;Laerm;55473;48.800;9.002;2023-04-24T08:13:22;50.43;43.19;63.12;;
186;Laerm;55473;48.800;9.002;2023-04-24T08:15:48;48.45;42.36;59.65;;
186;Laerm;55473;48.800;9.002;2023-04-24T08:18:14;49.01;42.94;56.93;;
186;Laerm;55473;48.800;9.002;2023-04-24T08:20:41;46.40;41.79;54.29;;
186;Laerm;55473;48.800;9.002;2023-04-24T08:23:07;49.74;42.57;71.08;;
186;Laerm;55473;48.800;9.002;2023-04-24T08:25:33;47.65;42.84;57.27;;
186;Laerm;55473;48.800;9.002;2023-04-24T08:28:03;46.54;41.91;57.43;;
186;Laerm;55473;48.800;9.002;2023-04-24T08:30:30;49.96;42.40;60.79;;
186;Laerm;55473;48.800;9.002;2023-04-24T08:32:56;48.52;43.81;65.31;;
186;Laerm;55473;48.800;9.002;2023-04-24T08:35:22;55.43;44.09;62.40;;
186;Laerm;55473;48.800;9.002;2023-04-24T08:37:48;50.01;43.68;60.79;;
186;Laerm;55473;48.800;9.002;2023-04-24T08:40:16;56.77;42.90;68.40;;
186;Laerm;55473;48.800;9.002;2023-04-24T08:42:43;48.08;42.27;57.27;;
186;Laerm;55473;48.800;9.002;2023-04-24T08:45:12;49.21;41.87;64.51;;
186;Laerm;55473;48.800;9.002;2023-04-24T08:47:40;51.35;41.43;75.80;;
186;Laerm;55473;48.800;9.002;2023-04-24T08:50:08;46.34;41.09;59.15;;
186;Laerm;55473;48.800;9.002;2023-04-24T08:52:35;54.90;42.89;69.06;;
186;Laerm;55473;48.800;9.002;2023-04-24T08:55:01;50.11;42.86;64.43;;
186;Laerm;55473;48.800;9.002;2023-04-24T08:57:29;50.92;41.75;61.37;;
186;Laerm;55473;48.800;9.002;2023-04-24T08:59:58;50.28;44.85;65.77;;
186;Laerm;55473;48.800;9.002;2023-04-24T09:02:25;50.44;42.02;62.19;;
186;Laerm;55473;48.800;9.002;2023-04-24T09:04:51;50.18;44.31;61.01;;
186;Laerm;55473;48.800;9.002;2023-04-24T09:07:19;51.00;43.80;62.87;;
186;Laerm;55473;48.800;9.002;2023-04-24T09:09:50;49.96;45.98;62.07;;
186;Laerm;55473;48.800;9.002;2023-04-24T09:12:18;52.18;43.08;64.53;;
186;Laerm;55473;48.800;9.002;2023-04-24T09:14:45;49.02;42.68;64.39;;
186;Laerm;55473;48.800;9.002;2023-04-24T09:17:12;52.08;44.51;64.53;;
186;Laerm;55473;48.800;9.002;2023-04-24T09:19:38;50.21;41.75;66.70;;
186;Laerm;55473;48.800;9.002;2023-04-24T09:22:08;47.10;42.30;57.95;;
186;Laerm;55473;48.800;9.002;2023-04-24T09:24:35;51.28;41.46;64.28;;
186;Laerm;55473;48.800;9.002;2023-04-24T09:27:01;50.74;42.99;63.13;;
186;Laerm;55473;48.800;9.002;2023-04-24T09:29:28;49.29;43.17;63.53;;
186;Laerm;55473;48.800;9.002;2023-04-24T09:31:54;48.46;40.65;65.68;;
186;Laerm;55473;48.800;9.002;2023-04-24T09:34:25;48.96;40.17;68.23;;
186;Laerm;55473;48.800;9.002;2023-04-24T09:36:52;47.47;40.52;67.68;;
186;Laerm;55473;48.800;9.002;2023-04-24T09:39:19;48.60;41.94;65.99;;
186;Laerm;55473;48.800;9.002;2023-04-24T09:41:51;49.03;43.46;60.78;;
186;Laerm;55473;48.800;9.002;2023-04-24T09:44:23;54.49;44.31;66.67;;
186;Laerm;55473;48.800;9.002;2023-04-24T09:46:55;49.27;43.37;60.23;;
186;Laerm;55473;48.800;9.002;2023-04-24T09:49:30;48.45;44.68;55.10;;
186;Laerm;55473;48.800;9.002;2023-04-24T09:52:08;46.81;43.31;53.44;;
186;Laerm;55473;48.800;9.002;2023-04-24T09:54:35;47.18;43.02;61.27;;
186;Laerm;55473;48.800;9.002;2023-04-24T09:57:09;47.55;41.97;61.51;;
186;Laerm;55473;48.800;9.002;2023-04-24T09:59:35;49.59;43.01;69.28;;
186;Laerm;55473;48.800;9.002;2023-04-24T10:02:18;46.59;41.00;61.99;;
186;Laerm;55473;48.800;9.002;2023-04-24T10:04:55;53.16;42.10;71.66;;
186;Laerm;55473;48.800;9.002;2023-04-24T10:07:25;51.51;43.82;69.17;;
186;Laerm;55473;48.800;9.002;2023-04-24T10:09:51;50.11;42.97;62.97;;
186;Laerm;55473;48.800;9.002;2023-04-24T10:12:17;52.69;43.32;64.72;;
186;Laerm;55473;48.800;9.002;2023-04-24T10:14:45;48.93;41.83;65.91;;
186;Laerm;55473;48.800;9.002;2023-04-24T10:17:12;49.58;40.91;63.72;;
186;Laerm;55473;48.800;9.002;2023-04-24T10:19:41;47.00;40.83;61.82;;
186;Laerm;55473;48.800;9.002;2023-04-24T10:22:09;52.41;43.76;69.10;;
186;Laerm;55473;48.800;9.002;2023-04-24T10:24:35;46.99;42.36;58.28;;
186;Laerm;55473;48.800;9.002;2023-04-24T10:27:03;49.62;44.06;61.83;;
186;Laerm;55473;48.800;9.002;2023-04-24T10:29:31;46.68;40.96;54.80;;
186;Laerm;55473;48.800;9.002;2023-04-24T10:31:57;45.30;40.59;59.81;;
186;Laerm;55473;48.800;9.002;2023-04-24T10:34:24;49.84;41.08;66.22;;
186;Laerm;55473;48.800;9.002;2023-04-24T10:36:56;49.21;43.02;65.01;;
186;Laerm;55473;48.800;9.002;2023-04-24T10:39:22;47.32;41.99;61.19;;
186;Laerm;55473;48.800;9.002;2023-04-24T10:41:51;47.08;41.47;64.33;;
186;Laerm;55473;48.800;9.002;2023-04-24T10:44:17;48.53;42.53;58.62;;
186;Laerm;55473;48.800;9.002;2023-04-24T10:46:46;47.14;40.79;58.49;;
186;Laerm;55473;48.800;9.002;2023-04-24T10:49:13;48.00;42.43;60.66;;
186;Laerm;55473;48.800;9.002;2023-04-24T10:51:51;45.89;40.83;60.55;;
186;Laerm;55473;48.800;9.002;2023-04-24T10:54:33;51.16;40.84;79.45;;
186;Laerm;55473;48.800;9.002;2023-04-24T10:59:44;54.34;43.84;72.72;;
186;Laerm;55473;48.800;9.002;2023-04-24T11:02:10;51.51;42.38;69.31;;
186;Laerm;55473;48.800;9.002;2023-04-24T11:04:36;53.67;44.90;69.01;;
186;Laerm;55473;48.800;9.002;2023-04-24T11:07:03;52.92;44.71;68.15;;
186;Laerm;55473;48.800;9.002;2023-04-24T11:09:32;51.85;44.35;66.69;;
186;Laerm;55473;48.800;9.002;2023-04-24T11:12:10;51.84;45.72;65.46;;
186;Laerm;55473;48.800;9.002;2023-04-24T11:17:38;48.65;42.39;58.34;;
186;Laerm;55473;48.800;9.002;2023-04-24T11:20:09;54.02;44.55;77.25;;
186;Laerm;55473;48.800;9.002;2023-04-24T11:22:39;49.08;41.93;61.74;;
186;Laerm;55473;48.800;9.002;2023-04-24T11:25:06;49.34;42.19;65.51;;
186;Laerm;55473;48.800;9.002;2023-04-24T11:27:44;50.96;42.13;68.07;;
186;Laerm;55473;48.800;9.002;2023-04-24T11:30:12;50.52;43.51;66.75;;
186;Laerm;55473;48.800;9.002;2023-04-24T11:32:48;52.89;43.37;68.11;;
186;Laerm;55473;48.800;9.002;2023-04-24T11:35:19;50.92;42.81;63.48;;
186;Laerm;55473;48.800;9.002;2023-04-24T11:37:53;50.58;43.36;67.57;;
186;Laerm;55473;48.800;9.002;2023-04-24T11:40:22;49.54;41.75;62.92;;
186;Laerm;55473;48.800;9.002;2023-04-24T11:42:54;48.72;42.01;64.01;;
186;Laerm;55473;48.800;9.002;2023-04-24T11:45:30;49.51;41.88;63.67;;
186;Laerm;55473;48.800;9.002;2023-04-24T11:47:56;48.48;40.56;61.97;;
186;Laerm;55473;48.800;9.002;2023-04-24T11:50:25;50.56;39.97;72.01;;
186;Laerm;55473;48.800;9.002;2023-04-24T11:52:52;47.18;40.48;61.48;;
186;Laerm;55473;48.800;9.002;2023-04-24T11:57:47;46.07;39.92;57.90;;
186;Laerm;55473;48.800;9.002;2023-04-24T12:00:29;47.06;42.09;66.38;;
186;Laerm;55473;48.800;9.002;2023-04-24T12:03:10;51.14;41.81;66.90;;
186;Laerm;55473;48.800;9.002;2023-04-24T12:05:38;45.77;40.50;55.34;;
186;Laerm;55473;48.800;9.002;2023-04-24T12:08:04;48.74;42.39;60.08;;
186;Laerm;55473;48.800;9.002;2023-04-24T12:10:32;47.32;41.78;57.82;;
186;Laerm;55473;48.800;9.002;2023-04-24T12:12:59;47.40;41.66;61.66;;
186;Laerm;55473;48.800;9.002;2023-04-24T12:15:26;48.51;41.15;65.24;;
186;Laerm;55473;48.800;9.002;2023-04-24T12:17:54;52.85;40.36;68.72;;
186;Laerm;55473;48.800;9.002;2023-04-24T12:20:32;48.99;43.00;60.85;;
186;Laerm;55473;48.800;9.002;2023-04-24T12:23:00;51.56;42.61;63.10;;
186;Laerm;55473;48.800;9.002;2023-04-24T12:25:33;50.06;43.14;68.64;;
186;Laerm;55473;48.800;9.002;2023-04-24T12:30:43;48.58;42.58;66.13;;
186;Laerm;55473;48.800;9.002;2023-04-24T12:33:19;51.96;42.39;68.87;;
186;Laerm;55473;48.800;9.002;2023-04-24T12:35:45;47.95;40.75;61.93;;
186;Laerm;55473;48.800;9.002;2023-04-24T12:38:13;48.25;41.61;63.65;;
186;Laerm;55473;48.800;9.002;2023-04-24T12:40:42;48.42;42.66;65.75;;
186;Laerm;55473;48.800;9.002;2023-04-24T12:43:20;50.40;43.00;64.50;;
186;Laerm;55473;48.800;9.002;2023-04-24T12:45:48;49.57;42.95;59.77;;
186;Laerm;55473;48.800;9.002;2023-04-24T12:48:14;53.15;44.85;70.11;;
186;Laerm;55473;48.800;9.002;2023-04-24T12:50:40;55.57;43.67;79.55;;
186;Laerm;55473;48.800;9.002;2023-04-24T12:53:07;50.70;44.39;64.29;;
186;Laerm;55473;48.800;9.002;2023-04-24T12:55:34;47.13;41.34;58.76;;
186;Laerm;55473;48.800;9.002;2023-04-24T12:58:00;44.83;40.65;53.07;;
186;Laerm;55473;48.800;9.002;2023-04-24T13:00:27;51.37;41.70;75.13;;
186;Laerm;55473;48.800;9.002;2023-04-24T13:02:53;53.57;41.50;73.39;;
186;Laerm;55473;48.800;9.002;2023-04-24T13:05:20;47.86;41.83;60.97;;
186;Laerm;55473;48.800;9.002;2023-04-24T13:07:46;44.63;40.26;54.72;;
186;Laerm;55473;48.800;9.002;2023-04-24T13:10:12;44.09;38.83;58.48;;
186;Laerm;55473;48.800;9.002;2023-04-24T13:12:39;45.71;41.18;57.11;;
186;Laerm;55473;48.800;9.002;2023-04-24T13:15:07;51.35;42.85;69.37;;
186;Laerm;55473;48.800;9.002;2023-04-24T13:17:33;48.47;40.98;58.52;;
186;Laerm;55473;48.800;9.002;2023-04-24T13:19:59;50.42;40.79;68.89;;
186;Laerm;55473;48.800;9.002;2023-04-24T13:22:25;49.39;39.10;66.13;;
186;Laerm;55473;48.800;9.002;2023-04-24T13:24:51;48.46;40.21;68.36;;
186;Laerm;55473;48.800;9.002;2023-04-24T13:27:17;50.03;43.10;65.30;;
186;Laerm;55473;48.800;9.002;2023-04-24T13:29:43;48.31;41.85;59.90;;
186;Laerm;55473;48.800;9.002;2023-04-24T13:32:10;48.94;41.65;66.65;;
186;Laerm;55473;48.800;9.002;2023-04-24T13:34:36;52.98;43.23;64.32;;
186;Laerm;55473;48.800;9.002;2023-04-24T13:37:03;51.99;43.34;67.35;;
186;Laerm;55473;48.800;9.002;2023-04-24T13:39:29;49.34;42.70;69.04;;
186;Laerm;55473;48.800;9.002;2023-04-24T13:41:55;49.38;41.77;67.32;;
186;Laerm;55473;48.800;9.002;2023-04-24T13:44:23;46.81;42.05;57.83;;
186;Laerm;55473;48.800;9.002;2023-04-24T13:46:53;51.83;41.71;74.21;;
186;Laerm;55473;48.800;9.002;2023-04-24T13:49:21;50.32;41.98;59.93;;
186;Laerm;55473;48.800;9.002;2023-04-24T13:51:47;51.94;40.90;61.44;;
186;Laerm;55473;48.800;9.002;2023-04-24T13:54:14;53.46;41.24;64.53;;
186;Laerm;55473;48.800;9.002;2023-04-24T13:56:40;52.01;41.31;76.23;;
186;Laerm;55473;48.800;9.002;2023-04-24T13:59:06;47.68;42.02;54.29;;
186;Laerm;55473;48.800;9.002;2023-04-24T14:01:32;49.64;43.71;66.13;;
186;Laerm;55473;48.800;9.002;2023-04-24T14:03:58;51.67;42.69;62.29;;
186;Laerm;55473;48.800;9.002;2023-04-24T14:06:25;53.91;42.15;67.71;;
186;Laerm;55473;48.800;9.002;2023-04-24T14:08:51;50.45;43.18;63.65;;
186;Laerm;55473;48.800;9.002;2023-04-24T14:11:18;48.77;42.34;61.96;;
186;Laerm;55473;48.800;9.002;2023-04-24T14:13:46;52.39;42.71;63.73;;
186;Laerm;55473;48.800;9.002;2023-04-24T14:16:12;48.11;42.43;57.52;;
186;Laerm;55473;48.800;9.002;2023-04-24T14:18:38;50.84;43.32;63.32;;